Time;durP1;ratioP1;P1;durP2;ratioP2;P2;SDS_P1;SDS_P2;PMS_P1;PMS_P2;Temp;Humidity;BMP_temperature;BMP_pressure;BME280_temperature;BME280_humidity;BME280_pressure;Samples;Min_cycle;Max_cycle;Signal;HPM_P1;HPM_P2
2022/04/03 00:01:31;;;;;;;3.35;2.70;;;;;;;;;;5087842;28;20055;-60
2022/04/03 00:03:57;;;;;;;4.60;2.88;;;;;;;;;;5085658;28;20033;-59
2022/04/03 00:06:23;;;;;;;4.00;3.17;;;;;;;;;;5085633;28;20559;-60
2022/04/03 00:08:49;;;;;;;6.68;3.53;;;;;;;;;;5067872;28;20044;-60
2022/04/03 00:11:15;;;;;;;4.00;2.83;;;;;;;;;;5069271;28;20093;-60
2022/04/03 00:13:42;;;;;;;5.88;2.78;;;;;;;;;;5069820;28;20498;-60
2022/04/03 00:16:08;;;;;;;4.85;3.00;;;;;;;;;;5067154;28;20032;-59
2022/04/03 00:18:34;;;;;;;4.57;3.08;;;;;;;;;;5071659;28;20040;-59
2022/04/03 00:21:00;;;;;;;5.35;3.05;;;;;;;;;;5064976;28;20044;-59
2022/04/03 00:23:27;;;;;;;4.05;2.90;;;;;;;;;;5056178;28;20082;-59
2022/04/03 00:25:53;;;;;;;7.28;3.05;;;;;;;;;;5063873;28;20493;-59
2022/04/03 00:28:19;;;;;;;5.93;2.70;;;;;;;;;;5064823;28;20048;-59
2022/04/03 00:30:46;;;;;;;3.53;3.10;;;;;;;;;;5068173;28;20036;-60
2022/04/03 00:33:12;;;;;;;6.40;3.20;;;;;;;;;;5067416;28;20520;-59
2022/04/03 00:35:38;;;;;;;6.40;3.50;;;;;;;;;;5069112;28;20094;-59
2022/04/03 00:38:04;;;;;;;5.72;3.15;;;;;;;;;;5067948;28;20040;-60
2022/04/03 00:40:30;;;;;;;4.43;2.97;;;;;;;;;;5068986;28;20048;-59
2022/04/03 00:42:57;;;;;;;5.78;3.03;;;;;;;;;;5066899;28;20040;-59
2022/04/03 00:45:23;;;;;;;5.55;3.15;;;;;;;;;;5068820;28;20040;-60
2022/04/03 00:47:51;;;;;;;4.95;2.78;;;;;;;;;;5067847;28;20045;-60
2022/04/03 00:50:18;;;;;;;4.38;2.90;;;;;;;;;;5059692;28;20048;-60
2022/04/03 00:52:44;;;;;;;6.78;3.67;;;;;;;;;;5067330;28;20048;-60
2022/04/03 00:55:10;;;;;;;5.90;3.13;;;;;;;;;;5071263;28;20434;-59
2022/04/03 00:57:36;;;;;;;4.80;3.35;;;;;;;;;;5050758;28;20459;-60
2022/04/03 01:00:04;;;;;;;5.22;3.05;;;;;;;;;;5067135;28;20127;-59
2022/04/03 01:02:31;;;;;;;5.60;3.40;;;;;;;;;;5067637;28;20037;-60
2022/04/03 01:04:57;;;;;;;5.60;3.20;;;;;;;;;;5064295;28;20095;-60
2022/04/03 01:07:23;;;;;;;4.47;2.90;;;;;;;;;;5067820;28;20067;-60
2022/04/03 01:09:49;;;;;;;5.43;3.10;;;;;;;;;;5062098;28;20037;-60
2022/04/03 01:12:15;;;;;;;6.03;3.10;;;;;;;;;;5063242;28;20044;-60
2022/04/03 01:14:42;;;;;;;4.27;3.70;;;;;;;;;;5064462;28;20048;-60
2022/04/03 01:17:10;;;;;;;5.43;3.13;;;;;;;;;;5068641;28;20041;-60
2022/04/03 01:19:37;;;;;;;5.43;3.30;;;;;;;;;;5067133;28;20127;-60
2022/04/03 01:22:03;;;;;;;6.18;3.40;;;;;;;;;;5065485;28;20047;-60
2022/04/03 01:24:30;;;;;;;6.25;2.90;;;;;;;;;;5064826;28;20123;-60
2022/04/03 01:26:56;;;;;;;6.97;3.10;;;;;;;;;;5064874;28;20045;-60
2022/04/03 01:29:23;;;;;;;6.23;3.27;;;;;;;;;;5065540;28;20105;-60
2022/04/03 01:31:49;;;;;;;4.60;3.17;;;;;;;;;;5058510;28;20052;-60
2022/04/03 01:34:16;;;;;;;5.47;3.43;;;;;;;;;;5066405;28;20041;-60
2022/04/03 01:36:42;;;;;;;5.83;3.27;;;;;;;;;;5067411;28;20037;-59
2022/04/03 01:39:10;;;;;;;4.13;3.30;;;;;;;;;;5068146;28;20033;-60
2022/04/03 01:41:37;;;;;;;5.13;3.53;;;;;;;;;;5068453;28;20044;-60
2022/04/03 01:44:03;;;;;;;6.53;3.60;;;;;;;;;;5068281;28;20482;-60
2022/04/03 01:46:29;;;;;;;4.63;3.38;;;;;;;;;;5066413;28;20553;-60
2022/04/03 01:49:04;;;;;;;6.60;3.33;;;;;;;;;;5050805;28;20078;-60
2022/04/03 01:51:30;;;;;;;3.92;3.38;;;;;;;;;;5067844;28;20039;-60
2022/04/03 01:53:56;;;;;;;4.03;3.05;;;;;;;;;;5069947;28;20028;-59
2022/04/03 01:56:23;;;;;;;5.17;3.23;;;;;;;;;;5065464;28;20482;-60
2022/04/03 01:58:49;;;;;;;8.83;3.23;;;;;;;;;;5064959;28;20510;-60
2022/04/03 02:01:15;;;;;;;6.90;3.40;;;;;;;;;;5063845;28;20042;-60
2022/04/03 02:03:41;;;;;;;6.63;3.73;;;;;;;;;;5058092;28;20453;-60
2022/04/03 02:06:07;;;;;;;3.60;3.00;;;;;;;;;;5064629;28;20086;-60
2022/04/03 02:08:33;;;;;;;6.50;3.40;;;;;;;;;;5069044;28;20469;-60
2022/04/03 02:10:59;;;;;;;5.67;3.27;;;;;;;;;;5065250;28;20040;-60
2022/04/03 02:13:25;;;;;;;4.83;3.43;;;;;;;;;;5063084;28;20063;-60
2022/04/03 02:15:52;;;;;;;5.47;3.55;;;;;;;;;;5061581;28;20079;-61
2022/04/03 02:18:18;;;;;;;5.77;3.30;;;;;;;;;;5064439;28;20515;-61
2022/04/03 02:20:44;;;;;;;5.30;3.40;;;;;;;;;;5065822;28;20032;-61
2022/04/03 02:23:10;;;;;;;5.27;3.27;;;;;;;;;;5064217;28;20473;-60
2022/04/03 02:25:37;;;;;;;5.30;3.60;;;;;;;;;;5064214;28;20063;-60
2022/04/03 02:28:04;;;;;;;5.70;3.57;;;;;;;;;;5066138;28;20575;-61
2022/04/03 02:30:30;;;;;;;6.03;3.20;;;;;;;;;;5062619;28;20510;-61
2022/04/03 02:32:56;;;;;;;6.73;3.80;;;;;;;;;;5063682;28;20044;-60
2022/04/03 02:35:22;;;;;;;4.50;3.57;;;;;;;;;;5064191;28;20044;-61
2022/04/03 02:37:48;;;;;;;4.13;3.00;;;;;;;;;;5066509;28;20045;-61
2022/04/03 02:40:16;;;;;;;3.90;3.33;;;;;;;;;;5066496;28;20171;-61
2022/04/03 02:42:43;;;;;;;5.77;3.60;;;;;;;;;;5066465;28;20063;-61
2022/04/03 02:45:12;;;;;;;4.47;3.20;;;;;;;;;;5040919;28;20043;-61
2022/04/03 02:47:38;;;;;;;7.10;3.10;;;;;;;;;;5067630;28;20490;-61
2022/04/03 02:50:05;;;;;;;4.03;3.30;;;;;;;;;;5064119;28;20043;-61
2022/04/03 02:52:31;;;;;;;9.10;3.10;;;;;;;;;;5066082;28;20521;-61
2022/04/03 02:54:57;;;;;;;5.30;3.00;;;;;;;;;;5064502;28;20502;-61
2022/04/03 02:57:24;;;;;;;3.87;2.93;;;;;;;;;;5066286;28;20495;-61
2022/04/03 02:59:50;;;;;;;5.40;3.70;;;;;;;;;;5066285;28;20137;-61
2022/04/03 03:02:16;;;;;;;5.07;3.40;;;;;;;;;;5068819;28;20036;-61
2022/04/03 03:04:42;;;;;;;3.70;3.00;;;;;;;;;;5062893;28;20513;-61
2022/04/03 03:07:09;;;;;;;5.10;3.80;;;;;;;;;;5067099;28;20044;-61
2022/04/03 03:09:35;;;;;;;5.87;3.43;;;;;;;;;;5046992;28;20048;-61
2022/04/03 03:12:01;;;;;;;5.47;3.40;;;;;;;;;;5067902;28;20044;-61
2022/04/03 03:14:27;;;;;;;3.83;3.40;;;;;;;;;;5063620;28;20040;-60
2022/04/03 03:16:54;;;;;;;5.17;3.37;;;;;;;;;;5067729;28;20063;-60
2022/04/03 03:19:20;;;;;;;7.03;3.83;;;;;;;;;;5061100;28;20045;-61
2022/04/03 03:21:46;;;;;;;7.17;3.27;;;;;;;;;;5066699;28;20040;-61
2022/04/03 03:24:12;;;;;;;5.20;3.23;;;;;;;;;;5061100;28;20047;-60
2022/04/03 03:26:38;;;;;;;5.70;3.67;;;;;;;;;;5066610;28;20036;-60
2022/04/03 03:29:04;;;;;;;4.13;3.43;;;;;;;;;;5066178;28;20047;-60
2022/04/03 03:31:31;;;;;;;5.57;3.60;;;;;;;;;;5065980;28;20036;-61
2022/04/03 03:33:57;;;;;;;4.50;3.10;;;;;;;;;;5065100;28;20040;-61
2022/04/03 03:36:23;;;;;;;5.27;3.17;;;;;;;;;;5067311;28;20045;-61
2022/04/03 03:38:49;;;;;;;4.63;3.43;;;;;;;;;;5050484;28;20040;-61
2022/04/03 03:41:15;;;;;;;4.30;3.60;;;;;;;;;;5061431;28;20044;-61
2022/04/03 03:43:41;;;;;;;5.87;3.20;;;;;;;;;;5061599;28;20483;-61
2022/04/03 03:46:08;;;;;;;4.40;3.30;;;;;;;;;;5065078;28;20055;-61
2022/04/03 03:48:34;;;;;;;6.57;3.67;;;;;;;;;;5064844;28;20487;-61
2022/04/03 03:51:00;;;;;;;5.00;3.63;;;;;;;;;;5063454;28;20036;-60
2022/04/03 03:53:26;;;;;;;5.63;3.33;;;;;;;;;;5061470;28;20040;-61
2022/04/03 03:55:52;;;;;;;5.57;3.40;;;;;;;;;;5065577;28;20470;-60
2022/04/03 03:58:18;;;;;;;6.23;3.70;;;;;;;;;;5065392;28;20048;-60
2022/04/03 04:00:44;;;;;;;6.30;3.80;;;;;;;;;;5061011;28;20048;-60
2022/04/03 04:03:10;;;;;;;6.00;4.23;;;;;;;;;;5066639;28;20425;-59
2022/04/03 04:05:36;;;;;;;4.63;3.23;;;;;;;;;;5058858;28;20029;-60
2022/04/03 04:08:02;;;;;;;5.10;3.70;;;;;;;;;;5063669;28;20133;-60
2022/04/03 04:10:28;;;;;;;6.70;3.73;;;;;;;;;;5052023;28;20210;-60
2022/04/03 04:12:54;;;;;;;6.87;3.63;;;;;;;;;;5068155;28;20131;-60
2022/04/03 04:15:20;;;;;;;6.70;3.73;;;;;;;;;;5068809;28;20037;-60
2022/04/03 04:17:47;;;;;;;5.03;3.50;;;;;;;;;;5064791;28;20479;-60
2022/04/03 04:20:17;;;;;;;6.87;3.80;;;;;;;;;;5065457;28;20037;-60
2022/04/03 04:22:44;;;;;;;6.00;3.87;;;;;;;;;;5070665;28;20119;-60
2022/04/03 04:25:11;;;;;;;4.77;3.60;;;;;;;;;;5069655;28;20090;-61
2022/04/03 04:27:37;;;;;;;4.90;3.83;;;;;;;;;;5071691;28;20040;-61
2022/04/03 04:30:04;;;;;;;4.30;3.67;;;;;;;;;;5063547;28;20067;-61
2022/04/03 04:32:30;;;;;;;4.90;3.80;;;;;;;;;;5069427;28;20040;-60
2022/04/03 04:34:56;;;;;;;5.50;3.60;;;;;;;;;;5061729;28;20041;-60
2022/04/03 04:37:22;;;;;;;4.67;3.30;;;;;;;;;;5066151;28;20040;-60
2022/04/03 04:39:48;;;;;;;4.77;3.83;;;;;;;;;;5049507;28;20037;-60
2022/04/03 04:42:14;;;;;;;5.53;3.70;;;;;;;;;;5072266;28;20086;-59
2022/04/03 04:44:40;;;;;;;4.47;3.40;;;;;;;;;;5065985;28;20449;-60
2022/04/03 04:47:06;;;;;;;7.85;4.20;;;;;;;;;;5071490;28;20044;-60
2022/04/03 04:49:33;;;;;;;4.80;3.80;;;;;;;;;;5063812;28;20047;-59
2022/04/03 04:51:59;;;;;;;6.38;4.30;;;;;;;;;;5068767;28;20430;-60
2022/04/03 04:54:26;;;;;;;7.57;4.32;;;;;;;;;;5065679;28;20055;-60
2022/04/03 04:56:52;;;;;;;6.53;4.13;;;;;;;;;;5063193;28;20170;-60
2022/04/03 04:59:18;;;;;;;6.17;3.90;;;;;;;;;;5062981;28;20067;-59
2022/04/03 05:01:44;;;;;;;5.70;4.35;;;;;;;;;;5064223;28;21049;-60
2022/04/03 05:04:10;;;;;;;4.77;3.57;;;;;;;;;;5042592;28;20044;-60
2022/04/03 05:06:37;;;;;;;6.27;4.07;;;;;;;;;;5065862;28;20032;-60
2022/04/03 05:09:04;;;;;;;4.93;3.87;;;;;;;;;;5067798;28;20037;-60
2022/04/03 05:11:30;;;;;;;6.45;4.28;;;;;;;;;;5068561;28;20430;-60
2022/04/03 05:13:56;;;;;;;5.23;4.00;;;;;;;;;;5071302;28;20036;-60
2022/04/03 05:16:22;;;;;;;6.90;5.13;;;;;;;;;;5064039;28;20040;-59
2022/04/03 05:18:48;;;;;;;8.40;4.65;;;;;;;;;;5068855;28;20033;-60
2022/04/03 05:21:14;;;;;;;5.40;4.27;;;;;;;;;;5054406;28;20067;-60
2022/04/03 05:23:41;;;;;;;7.27;4.37;;;;;;;;;;5061879;28;20052;-60
2022/04/03 05:26:08;;;;;;;7.10;4.50;;;;;;;;;;5065563;28;20084;-60
2022/04/03 05:28:35;;;;;;;8.00;4.37;;;;;;;;;;5066505;28;20473;-60
2022/04/03 05:31:01;;;;;;;4.97;3.80;;;;;;;;;;5069804;28;20040;-60
2022/04/03 05:33:27;;;;;;;6.13;4.37;;;;;;;;;;5058274;28;20032;-60
2022/04/03 05:35:53;;;;;;;7.33;4.50;;;;;;;;;;5060425;28;20102;-60
2022/04/03 05:38:19;;;;;;;6.60;4.30;;;;;;;;;;5064407;28;20029;-60
2022/04/03 05:40:45;;;;;;;6.47;4.05;;;;;;;;;;5044655;28;20060;-61
2022/04/03 05:43:11;;;;;;;5.87;4.43;;;;;;;;;;5063151;28;20052;-60
2022/04/03 05:45:40;;;;;;;5.10;4.10;;;;;;;;;;5066412;28;20114;-60
2022/04/03 05:48:07;;;;;;;7.10;4.27;;;;;;;;;;5065611;28;20075;-61
2022/04/03 05:50:33;;;;;;;6.00;4.33;;;;;;;;;;5069779;28;20037;-60
2022/04/03 05:52:59;;;;;;;6.50;4.50;;;;;;;;;;5048728;28;20047;-60
2022/04/03 05:55:26;;;;;;;6.77;4.70;;;;;;;;;;5062065;28;20061;-60
2022/04/03 05:57:52;;;;;;;8.27;4.13;;;;;;;;;;5047925;28;20074;-60
2022/04/03 06:00:20;;;;;;;6.30;4.10;;;;;;;;;;5112747;22;20040;-61
2022/04/03 06:02:48;;;;;;;6.27;4.40;;;;;;;;;;5121903;27;20097;-61
2022/04/03 06:05:15;;;;;;;6.63;4.20;;;;;;;;;;5116399;27;20044;-61
2022/04/03 06:07:41;;;;;;;8.50;4.38;;;;;;;;;;5125048;27;20384;-61
2022/04/03 06:10:07;;;;;;;4.90;3.88;;;;;;;;;;5129195;27;20030;-62
2022/04/03 06:12:34;;;;;;;8.43;4.60;;;;;;;;;;5132111;27;20069;-62
2022/04/03 06:15:00;;;;;;;6.65;3.97;;;;;;;;;;5127690;27;20047;-61
2022/04/03 06:17:26;;;;;;;7.22;4.75;;;;;;;;;;5126454;27;20489;-62
2022/04/03 06:19:52;;;;;;;6.73;4.70;;;;;;;;;;5128505;27;20062;-61
2022/04/03 06:22:18;;;;;;;7.40;4.60;;;;;;;;;;5132193;27;20067;-61
2022/04/03 06:24:44;;;;;;;5.60;4.65;;;;;;;;;;5131389;27;20031;-62
2022/04/03 06:27:10;;;;;;;8.52;5.07;;;;;;;;;;5130510;27;20108;-62
2022/04/03 06:29:36;;;;;;;9.23;5.28;;;;;;;;;;5130921;27;20035;-62
2022/04/03 06:32:04;;;;;;;8.13;5.00;;;;;;;;;;5129353;27;20085;-61
2022/04/03 06:34:30;;;;;;;6.28;4.38;;;;;;;;;;5128308;27;20050;-62
2022/04/03 06:36:55;;;;;;;7.63;4.72;;;;;;;;;;5132472;27;20035;-61
2022/04/03 06:39:21;;;;;;;6.53;5.10;;;;;;;;;;5130463;27;20042;-61
2022/04/03 06:41:47;;;;;;;6.80;4.43;;;;;;;;;;5126312;27;20064;-61
2022/04/03 06:44:15;;;;;;;8.73;4.65;;;;;;;;;;5132244;27;20065;-61
2022/04/03 06:46:41;;;;;;;7.53;4.75;;;;;;;;;;5131578;27;20035;-61
2022/04/03 06:49:07;;;;;;;6.57;4.57;;;;;;;;;;5127441;27;20093;-61
2022/04/03 06:51:33;;;;;;;7.60;4.82;;;;;;;;;;5125941;27;20046;-62
2022/04/03 06:53:59;;;;;;;6.97;4.80;;;;;;;;;;5132366;27;20549;-61
2022/04/03 06:56:25;;;;;;;5.35;4.20;;;;;;;;;;5131139;27;20031;-61
2022/04/03 06:58:51;;;;;;;4.97;4.00;;;;;;;;;;5130469;27;20160;-62
2022/04/03 07:01:17;;;;;;;6.53;4.00;;;;;;;;;;5129647;27;20043;-62
2022/04/03 07:03:43;;;;;;;7.10;4.13;;;;;;;;;;5131005;27;20436;-62
2022/04/03 07:06:09;;;;;;;5.03;3.60;;;;;;;;;;5132067;27;20043;-62
2022/04/03 07:08:35;;;;;;;6.35;4.38;;;;;;;;;;5127853;27;20122;-61
2022/04/03 07:11:01;;;;;;;6.00;3.97;;;;;;;;;;5125508;27;20070;-61
2022/04/03 07:13:27;;;;;;;5.55;3.28;;;;;;;;;;5131556;28;20502;-62
2022/04/03 07:15:53;;;;;;;6.22;3.30;;;;;;;;;;5131379;27;20116;-61
2022/04/03 07:18:19;;;;;;;3.72;3.35;;;;;;;;;;5131247;28;20039;-61
2022/04/03 07:20:48;;;;;;;7.05;3.67;;;;;;;;;;5124849;27;20392;-62
2022/04/03 07:23:14;;;;;;;4.50;2.75;;;;;;;;;;5127454;27;20039;-61
2022/04/03 07:25:40;;;;;;;7.18;3.40;;;;;;;;;;5131905;28;20058;-62
2022/04/03 07:28:06;;;;;;;4.78;3.05;;;;;;;;;;5129470;27;20070;-62
2022/04/03 07:30:32;;;;;;;7.90;3.20;;;;;;;;;;5131073;27;20420;-62
2022/04/03 07:32:58;;;;;;;5.70;2.63;;;;;;;;;;5128017;27;20068;-62
2022/04/03 07:35:25;;;;;;;4.88;3.17;;;;;;;;;;5128759;27;20053;-62
2022/04/03 07:37:51;;;;;;;6.13;2.72;;;;;;;;;;5126375;27;20438;-63
2022/04/03 07:40:17;;;;;;;5.03;2.97;;;;;;;;;;5127020;27;20454;-62
2022/04/03 07:42:46;;;;;;;5.32;2.33;;;;;;;;;;5132634;27;20027;-62
2022/04/03 07:45:12;;;;;;;4.32;2.70;;;;;;;;;;5133171;27;20050;-62
2022/04/03 07:47:45;;;;;;;8.30;2.72;;;;;;;;;;5133052;27;20396;-62
2022/04/03 07:50:11;;;;;;;3.85;2.22;;;;;;;;;;5133428;27;20042;-62
2022/04/03 07:52:37;;;;;;;7.38;2.47;;;;;;;;;;5132368;27;20046;-61
2022/04/03 07:55:03;;;;;;;5.63;2.63;;;;;;;;;;5128272;27;20046;-62
2022/04/03 07:57:29;;;;;;;3.97;2.33;;;;;;;;;;5130670;27;20039;-61
2022/04/03 07:59:55;;;;;;;6.07;2.47;;;;;;;;;;5132861;27;20027;-61
2022/04/03 08:02:21;;;;;;;6.55;2.40;;;;;;;;;;5133067;27;20078;-61
2022/04/03 08:04:47;;;;;;;7.82;2.42;;;;;;;;;;5129941;27;20477;-62
2022/04/03 08:07:13;;;;;;;5.60;2.47;;;;;;;;;;5131425;27;20039;-61
2022/04/03 08:09:39;;;;;;;5.75;2.40;;;;;;;;;;5132955;27;20122;-60
2022/04/03 08:12:05;;;;;;;4.07;2.40;;;;;;;;;;5134459;27;20042;-61
2022/04/03 08:14:31;;;;;;;3.17;2.17;;;;;;;;;;5134705;27;20043;-61
2022/04/03 08:16:57;;;;;;;5.68;2.10;;;;;;;;;;5134174;27;20043;-61
2022/04/03 08:19:23;;;;;;;5.47;2.15;;;;;;;;;;5133343;27;20420;-61
2022/04/03 08:21:49;;;;;;;5.30;2.78;;;;;;;;;;5128752;27;20038;-61
2022/04/03 08:24:15;;;;;;;7.47;2.40;;;;;;;;;;5133538;27;20670;-61
2022/04/03 08:26:42;;;;;;;7.32;2.35;;;;;;;;;;5133612;27;20042;-61
2022/04/03 08:29:08;;;;;;;8.13;2.40;;;;;;;;;;5130449;27;20484;-60
2022/04/03 08:31:34;;;;;;;5.47;2.22;;;;;;;;;;5132561;27;20041;-61
2022/04/03 08:34:00;;;;;;;2.63;1.75;;;;;;;;;;5133223;27;20031;-61
2022/04/03 08:36:26;;;;;;;2.33;1.50;;;;;;;;;;5132764;27;20031;-61
2022/04/03 08:38:52;;;;;;;4.57;1.85;;;;;;;;;;5128666;27;20404;-60
2022/04/03 08:41:18;;;;;;;4.88;1.63;;;;;;;;;;5126538;27;20050;-61
2022/04/03 08:43:46;;;;;;;5.65;1.80;;;;;;;;;;5131376;27;20508;-60
2022/04/03 08:46:12;;;;;;;3.25;1.80;;;;;;;;;;5131796;27;20096;-60
2022/04/03 08:48:44;;;;;;;3.05;1.63;;;;;;;;;;5133844;27;20260;-60
2022/04/03 08:51:11;;;;;;;5.45;1.40;;;;;;;;;;5134008;27;20055;-60
2022/04/03 08:53:39;;;;;;;4.32;1.73;;;;;;;;;;5128515;27;20497;-60
2022/04/03 08:56:05;;;;;;;3.50;1.85;;;;;;;;;;5130625;27;20129;-61
2022/04/03 08:58:32;;;;;;;2.30;1.33;;;;;;;;;;5129500;27;20042;-60
2022/04/03 09:00:58;;;;;;;3.22;1.40;;;;;;;;;;5133582;27;20042;-61
2022/04/03 09:03:24;;;;;;;6.38;1.63;;;;;;;;;;5134143;27;20036;-61
2022/04/03 09:05:50;;;;;;;3.42;1.75;;;;;;;;;;5132041;27;20088;-60
2022/04/03 09:08:16;;;;;;;5.22;1.70;;;;;;;;;;5131746;27;20381;-61
2022/04/03 09:10:42;;;;;;;3.72;1.40;;;;;;;;;;5134156;27;20050;-60
2022/04/03 09:13:09;;;;;;;3.42;1.50;;;;;;;;;;5131373;27;20043;-60
2022/04/03 09:15:35;;;;;;;2.60;1.52;;;;;;;;;;5132783;27;20042;-60
2022/04/03 09:18:02;;;;;;;4.38;1.50;;;;;;;;;;5131553;27;20039;-60
2022/04/03 09:20:32;;;;;;;2.03;1.38;;;;;;;;;;5132628;27;20042;-60
2022/04/03 09:22:59;;;;;;;2.78;1.63;;;;;;;;;;5131592;27;20039;-60
2022/04/03 09:25:31;;;;;;;4.32;1.40;;;;;;;;;;5130850;27;20377;-60
2022/04/03 09:28:06;;;;;;;3.90;1.50;;;;;;;;;;5128594;27;20039;-61
2022/04/03 09:30:54;;;;;;;4.32;1.60;;;;;;;;;;5132590;27;20500;-61
2022/04/03 09:33:20;;;;;;;2.00;1.40;;;;;;;;;;5131939;27;20411;-61
2022/04/03 09:36:03;;;;;;;3.63;1.40;;;;;;;;;;5131286;27;20039;-61
2022/04/03 09:38:32;;;;;;;3.17;1.52;;;;;;;;;;5129493;27;20446;-61
2022/04/03 09:40:59;;;;;;;4.28;1.52;;;;;;;;;;5114216;27;20114;-61
2022/04/03 09:43:27;;;;;;;3.22;1.30;;;;;;;;;;5128987;27;20050;-61
2022/04/03 09:45:58;;;;;;;6.68;1.55;;;;;;;;;;5132515;27;20046;-61
2022/04/03 09:48:31;;;;;;;2.55;1.40;;;;;;;;;;5132862;27;20054;-60
2022/04/03 09:51:06;;;;;;;2.72;1.23;;;;;;;;;;5131010;27;20035;-61
2022/04/03 09:53:45;;;;;;;3.83;1.40;;;;;;;;;;5130552;27;20091;-61
2022/04/03 09:56:31;;;;;;;2.50;1.20;;;;;;;;;;5130715;27;20215;-60
2022/04/03 09:59:00;;;;;;;4.07;1.38;;;;;;;;;;5124324;27;20047;-61
2022/04/03 10:01:30;;;;;;;4.47;1.42;;;;;;;;;;5129457;27;20523;-61
2022/04/03 10:03:58;;;;;;;2.75;1.35;;;;;;;;;;5125712;27;20038;-61
2022/04/03 10:06:24;;;;;;;1.15;0.88;;;;;;;;;;5132902;27;20042;-61
2022/04/03 10:08:50;;;;;;;3.67;1.10;;;;;;;;;;5123575;27;20034;-61
2022/04/03 10:11:17;;;;;;;2.90;1.40;;;;;;;;;;5127075;27;20167;-61
2022/04/03 10:13:44;;;;;;;3.30;1.00;;;;;;;;;;5129144;27;20060;-61
2022/04/03 10:16:13;;;;;;;4.22;1.60;;;;;;;;;;5132058;27;20393;-60
2022/04/03 10:18:43;;;;;;;1.60;1.00;;;;;;;;;;5131449;27;20043;-61
2022/04/03 10:21:16;;;;;;;4.45;1.48;;;;;;;;;;5123656;27;20035;-60
2022/04/03 10:23:44;;;;;;;1.80;1.00;;;;;;;;;;5132152;27;20378;-60
2022/04/03 10:26:12;;;;;;;2.92;1.10;;;;;;;;;;5130913;27;20047;-60
2022/04/03 10:28:44;;;;;;;3.35;0.95;;;;;;;;;;5125964;27;21554;-61
2022/04/03 10:31:15;;;;;;;2.35;0.90;;;;;;;;;;5124556;27;20047;-61
2022/04/03 10:33:44;;;;;;;2.75;1.05;;;;;;;;;;5126654;27;20031;-61
2022/04/03 10:36:11;;;;;;;1.85;0.90;;;;;;;;;;5130448;27;20491;-61
2022/04/03 10:38:36;;;;;;;2.70;1.13;;;;;;;;;;5129835;27;20043;-61
2022/04/03 10:41:05;;;;;;;2.33;1.10;;;;;;;;;;5131892;27;20095;-61
2022/04/03 10:43:31;;;;;;;5.10;1.30;;;;;;;;;;5130843;27;20087;-61
2022/04/03 10:45:58;;;;;;;3.38;1.50;;;;;;;;;;5131041;27;20110;-61
2022/04/03 10:48:26;;;;;;;2.28;1.30;;;;;;;;;;5129938;27;20495;-61
2022/04/03 10:51:01;;;;;;;3.97;1.50;;;;;;;;;;5131388;27;20031;-62
2022/04/03 10:53:30;;;;;;;6.78;1.73;;;;;;;;;;5130378;27;20054;-61
2022/04/03 10:55:57;;;;;;;3.72;1.00;;;;;;;;;;5130202;27;20068;-61
2022/04/03 10:58:23;;;;;;;2.38;0.70;;;;;;;;;;5130417;27;20123;-61
2022/04/03 11:00:49;;;;;;;1.13;0.70;;;;;;;;;;5125248;27;20059;-61
2022/04/03 11:03:15;;;;;;;1.08;0.80;;;;;;;;;;5130012;27;20035;-61
2022/04/03 11:05:46;;;;;;;2.05;0.98;;;;;;;;;;5126541;27;20118;-61
2022/04/03 11:08:12;;;;;;;3.67;1.10;;;;;;;;;;5129765;27;20488;-61
2022/04/03 11:10:56;;;;;;;1.58;0.90;;;;;;;;;;5122811;28;20130;-61
2022/04/03 11:13:23;;;;;;;1.45;0.60;;;;;;;;;;5126767;27;20543;-61
2022/04/03 11:16:01;;;;;;;2.55;1.17;;;;;;;;;;5128313;27;20079;-62
2022/04/03 11:18:32;;;;;;;1.45;0.95;;;;;;;;;;5132190;27;20045;-62
2022/04/03 11:20:58;;;;;;;;;;;;;;;;;;5136697;27;20043;-62
2022/04/03 11:23:24;;;;;;;3.10;1.00;;;;;;;;;;5131114;27;20026;-62
2022/04/03 11:25:51;;;;;;;0.95;0.80;;;;;;;;;;5135077;27;20035;-62
2022/04/03 11:28:17;;;;;;;1.52;1.00;;;;;;;;;;5131437;27;20465;-62
2022/04/03 11:30:44;;;;;;;2.83;0.77;;;;;;;;;;5130657;27;20092;-62
2022/04/03 11:33:11;;;;;;;2.67;1.00;;;;;;;;;;5133470;27;20042;-62
2022/04/03 11:35:39;;;;;;;4.13;1.05;;;;;;;;;;5135340;27;20408;-62
2022/04/03 11:38:06;;;;;;;1.75;0.90;;;;;;;;;;5135088;27;20048;-62
2022/04/03 11:40:33;;;;;;;3.17;0.80;;;;;;;;;;5126246;27;20081;-62
2022/04/03 11:43:10;;;;;;;2.55;0.90;;;;;;;;;;5132501;27;20557;-62
2022/04/03 11:45:36;;;;;;;2.42;1.00;;;;;;;;;;5133439;27;20040;-62
2022/04/03 11:48:21;;;;;;;1.90;0.90;;;;;;;;;;5130269;27;20221;-62
2022/04/03 11:50:49;;;;;;;1.65;0.70;;;;;;;;;;5123311;27;20111;-62
2022/04/03 11:53:15;;;;;;;2.05;0.80;;;;;;;;;;5132976;27;20452;-61
2022/04/03 11:55:41;;;;;;;1.88;0.90;;;;;;;;;;5134039;27;20110;-61
2022/04/03 11:58:07;;;;;;;2.40;1.00;;;;;;;;;;5133030;27;20112;-61
2022/04/03 12:00:34;;;;;;;1.65;0.68;;;;;;;;;;5134040;22;20111;-60
2022/04/03 12:03:01;;;;;;;1.50;0.55;;;;;;;;;;5108256;28;20044;-60
2022/04/03 12:05:27;;;;;;;1.27;0.60;;;;;;;;;;5111462;27;20031;-60
2022/04/03 12:07:53;;;;;;;0.95;0.60;;;;;;;;;;5113511;27;20487;-60
2022/04/03 12:10:26;;;;;;;1.20;0.70;;;;;;;;;;5092271;28;20068;-60
2022/04/03 12:12:53;;;;;;;1.77;1.05;;;;;;;;;;5111769;28;20044;-60
2022/04/03 12:15:20;;;;;;;1.02;0.82;;;;;;;;;;5108966;28;20459;-60
2022/04/03 12:17:46;;;;;;;3.35;0.90;;;;;;;;;;5111928;28;20596;-61
2022/04/03 12:20:12;;;;;;;1.60;0.80;;;;;;;;;;5110497;28;20095;-61
2022/04/03 12:22:42;;;;;;;3.45;1.00;;;;;;;;;;5110611;28;20035;-60
2022/04/03 12:25:08;;;;;;;2.47;1.17;;;;;;;;;;5109594;28;20501;-60
2022/04/03 12:27:37;;;;;;;2.20;1.10;;;;;;;;;;5110969;28;20063;-61
2022/04/03 12:30:03;;;;;;;5.85;1.60;;;;;;;;;;5106098;28;20043;-60
2022/04/03 12:32:32;;;;;;;4.03;1.40;;;;;;;;;;5106105;28;20036;-60
2022/04/03 12:34:58;;;;;;;2.55;1.38;;;;;;;;;;5111021;28;20032;-60
2022/04/03 12:37:25;;;;;;;2.63;1.40;;;;;;;;;;5106660;28;20082;-61
2022/04/03 12:39:51;;;;;;;3.72;1.48;;;;;;;;;;5110501;28;20032;-60
2022/04/03 12:42:17;;;;;;;2.38;0.95;;;;;;;;;;5106784;28;20024;-60
2022/04/03 12:44:43;;;;;;;3.20;1.20;;;;;;;;;;5108549;28;20088;-60
2022/04/03 12:47:38;;;;;;;2.30;1.10;;;;;;;;;;5111097;28;20248;-59
2022/04/03 12:50:07;;;;;;;2.28;1.10;;;;;;;;;;5086737;28;20044;-59
2022/04/03 12:52:39;;;;;;;2.95;1.10;;;;;;;;;;5093201;28;20040;-59
2022/04/03 12:55:06;;;;;;;2.88;1.20;;;;;;;;;;5105163;28;20046;-60
2022/04/03 13:00:17;;;;;;;2.22;1.20;;;;;;;;;;5111470;28;20126;-60
2022/04/03 13:02:44;;;;;;;2.53;1.30;;;;;;;;;;5112355;28;20062;-60
2022/04/03 13:05:14;;;;;;;1.85;1.00;;;;;;;;;;5112013;28;20036;-60
2022/04/03 13:07:40;;;;;;;3.70;1.20;;;;;;;;;;5107536;28;20070;-60
2022/04/03 13:10:06;;;;;;;2.10;1.10;;;;;;;;;;5100637;28;20072;-60
2022/04/03 13:12:32;;;;;;;3.25;1.38;;;;;;;;;;5112381;28;20031;-60
2022/04/03 13:14:59;;;;;;;1.95;0.77;;;;;;;;;;5111902;28;20447;-60
2022/04/03 13:17:26;;;;;;;3.58;1.00;;;;;;;;;;5106502;28;20147;-61
2022/04/03 13:19:53;;;;;;;2.85;0.80;;;;;;;;;;5112842;28;20040;-61
2022/04/03 13:22:19;;;;;;;2.78;1.00;;;;;;;;;;5111103;28;20508;-61
2022/04/03 13:24:44;;;;;;;1.27;0.75;;;;;;;;;;5104377;28;20028;-59
2022/04/03 13:27:11;;;;;;;0.95;0.85;;;;;;;;;;5102609;28;20101;-61
2022/04/03 13:29:38;;;;;;;1.05;0.80;;;;;;;;;;5110434;28;20542;-61
2022/04/03 13:32:04;;;;;;;2.33;0.90;;;;;;;;;;5112962;28;20519;-61
2022/04/03 13:34:30;;;;;;;1.15;0.60;;;;;;;;;;5110913;28;20028;-61
2022/04/03 13:36:56;;;;;;;1.70;0.68;;;;;;;;;;5112641;28;20543;-59
2022/04/03 13:39:23;;;;;;;2.03;0.88;;;;;;;;;;5112251;28;20035;-61
2022/04/03 13:41:50;;;;;;;0.80;0.50;;;;;;;;;;5112909;28;20039;-61
2022/04/03 13:44:19;;;;;;;2.72;0.82;;;;;;;;;;5107234;28;20040;-62
2022/04/03 13:46:45;;;;;;;1.58;0.80;;;;;;;;;;5106302;28;20139;-61
2022/04/03 13:49:11;;;;;;;2.13;0.70;;;;;;;;;;5108523;28;20036;-61
2022/04/03 13:51:38;;;;;;;1.88;0.90;;;;;;;;;;5109785;28;20116;-61
2022/04/03 13:54:04;;;;;;;1.17;0.70;;;;;;;;;;5109583;28;20172;-61
2022/04/03 13:56:30;;;;;;;3.17;0.88;;;;;;;;;;5110917;28;20042;-61
2022/04/03 13:58:56;;;;;;;0.95;0.70;;;;;;;;;;5112579;28;20044;-62
2022/04/03 14:01:23;;;;;;;1.90;0.88;;;;;;;;;;5111060;28;20519;-61
2022/04/03 14:03:49;;;;;;;0.98;0.70;;;;;;;;;;5109876;28;20065;-60
2022/04/03 14:06:16;;;;;;;2.63;0.70;;;;;;;;;;5106162;28;20035;-60
2022/04/03 14:08:42;;;;;;;1.10;0.80;;;;;;;;;;5090297;28;20035;-61
2022/04/03 14:11:08;;;;;;;1.35;0.43;;;;;;;;;;5104673;28;20050;-60
2022/04/03 14:13:34;;;;;;;2.17;0.63;;;;;;;;;;5105860;28;20229;-60
2022/04/03 14:16:01;;;;;;;2.28;0.75;;;;;;;;;;5107392;28;20032;-60
2022/04/03 14:18:27;;;;;;;2.80;0.70;;;;;;;;;;5107477;28;20501;-60
2022/04/03 14:20:57;;;;;;;0.70;0.68;;;;;;;;;;5104913;28;20032;-60
2022/04/03 14:23:24;;;;;;;2.40;0.80;;;;;;;;;;5106205;28;20114;-61
2022/04/03 14:25:50;;;;;;;3.83;1.10;;;;;;;;;;5111774;28;20124;-60
2022/04/03 14:28:17;;;;;;;1.88;0.85;;;;;;;;;;5106229;28;20043;-61
2022/04/03 14:30:43;;;;;;;0.70;0.70;;;;;;;;;;5104458;28;20096;-61
2022/04/03 14:33:09;;;;;;;1.00;0.77;;;;;;;;;;5109107;28;20043;-61
2022/04/03 14:35:36;;;;;;;1.33;0.93;;;;;;;;;;5108267;28;20489;-61
2022/04/03 14:38:03;;;;;;;1.48;0.60;;;;;;;;;;5103939;28;20114;-61
2022/04/03 14:40:29;;;;;;;25.95;17.90;;;;;;;;;;5111005;28;20403;-61
2022/04/03 14:42:55;;;;;;;3.45;0.93;;;;;;;;;;5110788;28;20028;-61
2022/04/03 14:45:21;;;;;;;2.05;1.10;;;;;;;;;;5110692;28;20039;-60